Terminal Aerodrome Forecast
Issued by NWS Pocatello, ID

Home | Current Version | Previous Version | Text Only | Print | Product List | Glossary On
Versions: 1 2 3 4 5 6 7 8 9 10 11 12 13 14 15 16 17
503
FTUS45 KPIH 222329
TAFBYI
TAF
KBYI 222329Z 2300/2324 18012G22KT P6SM SCT020 OVC050
     FM230300 21009KT 2SM -SN BR BKN020 OVC030
     FM230400 21009KT 1SM -SN BR SCT008 BKN015
     FM230900 21005KT 5SM -SHSN BR BKN025 OVC030
     FM231800 27011KT 3SM -SN BR SCT005 OVC015=

USA.gov is the U.S. government's official web portal to all federal, state and local government web resources and services.